createdAt,value
2018-09-25T00:00:50.236Z,18.77
2018-09-25T00:03:24.452Z,17.87
2018-09-25T00:05:58.084Z,17.67
2018-09-25T00:08:31.747Z,17.40
2018-09-25T00:11:05.571Z,17.07
2018-09-25T00:13:39.344Z,18.80
2018-09-25T00:16:13.100Z,18.47
2018-09-25T00:18:46.765Z,17.03
2018-09-25T00:21:20.525Z,16.70
2018-09-25T00:23:54.240Z,17.60
2018-09-25T00:26:27.936Z,17.23
2018-09-25T00:29:02.379Z,16.13
2018-09-25T00:31:36.064Z,16.93
2018-09-25T00:34:09.785Z,16.77
2018-09-25T00:36:43.533Z,17.10
2018-09-25T00:39:17.320Z,16.90
2018-09-25T00:41:50.925Z,16.73
2018-09-25T00:44:24.701Z,16.13
2018-09-25T00:46:58.398Z,17.43
2018-09-25T00:49:31.993Z,15.73
2018-09-25T00:52:05.616Z,14.43
2018-09-25T00:54:39.273Z,16.07
2018-09-25T00:57:13.042Z,13.13
2018-09-25T00:59:46.789Z,15.03
2018-09-25T01:02:20.468Z,17.67
2018-09-25T01:04:54.207Z,13.70
2018-09-25T01:07:27.821Z,15.73
2018-09-25T01:10:01.494Z,14.33
2018-09-25T01:12:35.218Z,16.73
2018-09-25T01:15:08.940Z,14.30
2018-09-25T01:17:42.615Z,14.87
2018-09-25T01:20:16.378Z,13.30
2018-09-25T01:22:50.194Z,15.33
2018-09-25T01:25:23.872Z,13.60
2018-09-25T01:27:57.512Z,13.50
2018-09-25T01:30:31.304Z,13.87
2018-09-25T01:33:05.012Z,14.03
2018-09-25T01:35:38.716Z,13.63
2018-09-25T01:38:12.340Z,12.03
2018-09-25T01:40:46.048Z,14.60
2018-09-25T01:43:20.298Z,14.40
2018-09-25T01:45:53.942Z,12.60
2018-09-25T01:48:27.535Z,12.73
2018-09-25T01:51:01.221Z,13.10
2018-09-25T01:53:34.860Z,12.57
2018-09-25T01:56:08.642Z,11.57
2018-09-25T01:58:42.417Z,12.77
2018-09-25T02:01:16.876Z,11.83
2018-09-25T02:03:50.716Z,12.07
2018-09-25T02:06:24.509Z,12.13
2018-09-25T02:08:58.338Z,12.17
2018-09-25T02:11:32.176Z,12.30
2018-09-25T02:14:05.911Z,12.40
2018-09-25T02:16:39.628Z,11.60
2018-09-25T02:19:13.336Z,11.27
2018-09-25T02:21:46.981Z,13.30
2018-09-25T02:24:20.732Z,14.30
2018-09-25T02:26:54.498Z,11.70
2018-09-25T02:29:28.253Z,11.67
2018-09-25T02:32:02.001Z,11.30
2018-09-25T02:34:35.561Z,11.17
2018-09-25T02:37:09.199Z,13.47
2018-09-25T02:39:42.764Z,12.37
2018-09-25T02:42:16.511Z,12.17
2018-09-25T02:44:50.230Z,13.07
2018-09-25T02:47:23.968Z,12.03
2018-09-25T02:49:57.685Z,11.17
2018-09-25T02:52:31.395Z,10.90
2018-09-25T02:55:05.066Z,11.37
2018-09-25T02:57:38.685Z,11.90
2018-09-25T03:00:12.471Z,11.07
2018-09-25T03:02:46.183Z,10.63
2018-09-25T03:05:19.887Z,9.67
2018-09-25T03:07:53.516Z,11.43
2018-09-25T03:10:27.159Z,12.27
2018-09-25T03:13:00.832Z,11.80
2018-09-25T03:15:34.653Z,10.20
2018-09-25T03:18:10.074Z,9.73
2018-09-25T03:20:44.396Z,11.03
2018-09-25T03:23:18.177Z,11.13
2018-09-25T03:25:51.929Z,10.87
2018-09-25T03:28:25.561Z,11.97
2018-09-25T03:30:59.384Z,11.37
2018-09-25T03:33:33.140Z,11.13
2018-09-25T03:36:06.788Z,9.07
2018-09-25T03:38:41.344Z,10.73
2018-09-25T03:41:15.097Z,9.87
2018-09-25T03:43:48.741Z,10.93
2018-09-25T03:46:22.347Z,11.40
2018-09-25T03:48:56.037Z,10.87
2018-09-25T03:51:29.624Z,11.10
2018-09-25T03:54:03.209Z,9.70
2018-09-25T03:56:36.965Z,9.20
2018-09-25T03:59:10.653Z,9.90
2018-09-25T04:01:44.332Z,10.13
2018-09-25T04:04:18.033Z,9.90
2018-09-25T04:06:52.428Z,9.37
2018-09-25T04:09:26.064Z,9.70
2018-09-25T04:11:59.818Z,10.40
2018-09-25T04:14:33.592Z,10.33
2018-09-25T04:17:07.185Z,8.37
2018-09-25T04:19:40.827Z,8.80
2018-09-25T04:22:14.600Z,9.63
2018-09-25T04:24:48.304Z,10.37
2018-09-25T04:27:22.048Z,10.87
2018-09-25T04:29:55.791Z,9.60
2018-09-25T04:32:29.515Z,11.67
2018-09-25T04:35:03.274Z,9.57
2018-09-25T04:37:37.029Z,9.87
2018-09-25T04:40:10.794Z,9.20
2018-09-25T04:42:44.540Z,10.20
2018-09-25T04:45:18.269Z,9.13
2018-09-25T04:47:51.954Z,8.70
2018-09-25T04:50:25.726Z,8.47
2018-09-25T04:52:59.528Z,9.30
2018-09-25T04:55:33.236Z,9.17
2018-09-25T04:58:06.988Z,7.67
2018-09-25T05:00:40.766Z,7.90
2018-09-25T05:03:14.864Z,8.00
2018-09-25T05:05:48.544Z,7.97
2018-09-25T05:08:22.179Z,8.40
2018-09-25T05:10:55.887Z,7.03
2018-09-25T05:14:33.765Z,7.03
2018-09-25T05:17:07.453Z,7.53
2018-09-25T05:19:41.668Z,7.43
2018-09-25T05:22:15.486Z,6.63
2018-09-25T05:24:49.919Z,7.17
2018-09-25T05:27:24.107Z,7.57
2018-09-25T05:29:57.934Z,6.97
2018-09-25T05:32:31.608Z,9.00
2018-09-25T05:35:05.247Z,6.83
2018-09-25T05:37:38.952Z,5.63
2018-09-25T05:40:12.819Z,5.73
2018-09-25T05:42:46.590Z,7.60
2018-09-25T05:45:20.706Z,5.83
2018-09-25T05:47:54.589Z,6.30
2018-09-25T05:50:28.248Z,6.67
2018-09-25T05:53:01.921Z,6.33
2018-09-25T05:55:35.632Z,8.30
2018-09-25T05:58:09.432Z,7.77
2018-09-25T06:00:43.237Z,6.27
2018-09-25T06:03:17.113Z,7.57
2018-09-25T06:05:50.708Z,7.70
2018-09-25T06:08:24.351Z,6.63
2018-09-25T06:10:58.088Z,6.60
2018-09-25T06:13:31.990Z,11.03
2018-09-25T06:16:06.432Z,12.83
2018-09-25T06:18:40.916Z,14.50
2018-09-25T06:21:14.650Z,13.73
2018-09-25T06:23:48.337Z,13.50
2018-09-25T06:26:22.135Z,11.80
2018-09-25T06:28:55.966Z,18.90
2018-09-25T06:31:29.778Z,16.43
2018-09-25T06:34:03.487Z,17.07
2018-09-25T06:36:37.170Z,12.23
2018-09-25T06:39:14.734Z,10.70
2018-09-25T06:41:48.533Z,12.90
2018-09-25T06:44:22.380Z,13.97
2018-09-25T06:46:56.137Z,14.93
2018-09-25T06:49:29.860Z,19.70
2018-09-25T06:52:03.587Z,14.80
2018-09-25T06:54:37.747Z,16.43
2018-09-25T06:57:11.508Z,29.33
2018-09-25T06:59:45.315Z,16.33
2018-09-25T07:02:18.972Z,16.63
2018-09-25T07:04:52.704Z,16.87
2018-09-25T07:07:26.308Z,21.03
2018-09-25T07:10:00.197Z,14.83
2018-09-25T07:12:33.879Z,13.70
2018-09-25T07:15:07.615Z,13.40
2018-09-25T07:17:41.418Z,14.73
2018-09-25T07:20:15.081Z,14.67
2018-09-25T07:22:48.763Z,19.30
2018-09-25T07:25:22.481Z,15.60
2018-09-25T07:27:56.224Z,15.40
2018-09-25T07:30:29.901Z,14.20
2018-09-25T07:33:03.603Z,15.60
2018-09-25T07:35:37.253Z,16.87
2018-09-25T07:38:11.197Z,16.77
2018-09-25T07:40:44.956Z,14.53
2018-09-25T07:43:18.535Z,16.80
2018-09-25T07:45:52.324Z,14.77
2018-09-25T07:48:25.976Z,15.60
2018-09-25T07:50:59.657Z,15.20
2018-09-25T07:53:33.933Z,14.80
2018-09-25T07:56:07.592Z,14.03
2018-09-25T07:58:41.312Z,13.57
2018-09-25T08:01:15.206Z,16.13
2018-09-25T08:03:48.993Z,11.47
2018-09-25T08:06:22.663Z,13.13
2018-09-25T08:08:56.354Z,12.27
2018-09-25T08:11:29.961Z,12.27
2018-09-25T08:14:03.710Z,16.13
2018-09-25T08:16:37.506Z,12.93
2018-09-25T08:19:11.320Z,13.57
2018-09-25T08:21:45.068Z,13.33
2018-09-25T08:24:19.428Z,12.17
2018-09-25T08:26:53.188Z,12.10
2018-09-25T08:29:26.963Z,12.03
2018-09-25T08:32:01.223Z,10.67
2018-09-25T08:34:34.813Z,11.40
2018-09-25T08:37:09.678Z,12.10
2018-09-25T08:39:43.416Z,11.13
2018-09-25T08:42:17.071Z,10.40
2018-09-25T08:44:50.704Z,12.13
2018-09-25T08:47:24.407Z,11.63
2018-09-25T08:49:58.092Z,12.77
2018-09-25T08:52:31.872Z,10.80
2018-09-25T08:55:05.556Z,12.10
2018-09-25T08:57:39.315Z,11.97
2018-09-25T09:00:12.943Z,9.37
2018-09-25T09:02:46.787Z,10.17
2018-09-25T09:05:20.508Z,11.57
2018-09-25T09:07:54.340Z,8.13
2018-09-25T09:10:28.606Z,8.77
2018-09-25T09:13:02.388Z,9.03
2018-09-25T09:15:36.069Z,9.63
2018-09-25T09:18:09.825Z,7.90
2018-09-25T09:20:43.483Z,10.07
2018-09-25T09:23:17.134Z,9.17
2018-09-25T09:25:50.761Z,8.83
2018-09-25T09:28:24.366Z,7.17
2018-09-25T09:30:57.970Z,10.97
2018-09-25T09:33:31.626Z,9.67
2018-09-25T09:36:05.416Z,9.10
2018-09-25T09:38:39.339Z,8.80
2018-09-25T09:41:13.104Z,7.97
2018-09-25T09:43:46.749Z,7.77
2018-09-25T09:46:20.537Z,7.43
2018-09-25T09:48:54.176Z,8.30
2018-09-25T09:51:27.888Z,9.17
2018-09-25T09:54:01.614Z,6.57
2018-09-25T09:56:35.278Z,6.90
2018-09-25T09:59:11.181Z,7.90
2018-09-25T10:01:45.583Z,7.90
2018-09-25T10:04:19.757Z,9.50
2018-09-25T10:06:53.605Z,5.93
2018-09-25T10:09:27.226Z,7.57
2018-09-25T10:12:00.965Z,5.47
2018-09-25T10:14:34.766Z,6.83
2018-09-25T10:17:08.437Z,5.43
2018-09-25T10:19:42.772Z,5.53
2018-09-25T10:22:16.514Z,5.20
2018-09-25T10:24:50.251Z,8.27
2018-09-25T10:27:24.217Z,5.90
2018-09-25T10:29:58.600Z,5.10
2018-09-25T10:32:32.474Z,5.73
2018-09-25T10:35:06.262Z,4.30
2018-09-25T10:37:39.980Z,5.77
2018-09-25T10:40:13.688Z,5.50
2018-09-25T10:42:47.526Z,4.97
2018-09-25T10:45:21.363Z,4.67
2018-09-25T10:47:55.074Z,4.10
2018-09-25T10:50:28.844Z,4.93
2018-09-25T10:53:03.442Z,4.60
2018-09-25T10:55:37.368Z,3.90
2018-09-25T10:58:11.143Z,4.77
2018-09-25T11:00:44.880Z,4.60
2018-09-25T11:03:21.265Z,4.90
2018-09-25T11:05:54.891Z,4.33
2018-09-25T11:08:28.521Z,3.47
2018-09-25T11:11:02.352Z,4.00
2018-09-25T11:13:36.398Z,4.67
2018-09-25T11:16:11.072Z,3.70
2018-09-25T11:18:44.947Z,5.13
2018-09-25T11:21:18.828Z,4.03
2018-09-25T11:23:52.534Z,5.20
2018-09-25T11:26:26.156Z,4.73
2018-09-25T11:28:59.834Z,5.37
2018-09-25T11:31:33.498Z,4.13
2018-09-25T11:34:12.087Z,4.30
2018-09-25T11:36:45.829Z,3.53
2018-09-25T11:39:19.471Z,3.60
2018-09-25T11:41:53.393Z,3.67
2018-09-25T11:44:27.171Z,4.57
2018-09-25T11:47:00.975Z,3.77
2018-09-25T11:49:35.724Z,3.50
2018-09-25T11:52:09.537Z,5.37
2018-09-25T11:54:43.237Z,3.60
2018-09-25T11:57:16.976Z,3.97
2018-09-25T11:59:50.883Z,5.33
2018-09-25T12:02:24.778Z,3.60
2018-09-25T12:04:58.636Z,5.53
2018-09-25T12:07:32.742Z,4.57
2018-09-25T12:10:06.341Z,3.97
2018-09-25T12:12:40.199Z,3.50
2018-09-25T12:15:14.063Z,3.80
2018-09-25T12:17:47.875Z,3.20
2018-09-25T12:20:21.792Z,4.27
2018-09-25T12:22:55.542Z,3.37
2018-09-25T12:25:29.338Z,2.93
2018-09-25T12:28:03.159Z,3.57
2018-09-25T12:30:42.578Z,3.13
2018-09-25T12:33:16.448Z,5.20
2018-09-25T12:35:50.306Z,2.67
2018-09-25T12:38:24.072Z,6.40
2018-09-25T12:40:57.856Z,3.67
2018-09-25T12:43:32.262Z,3.47
2018-09-25T12:46:06.001Z,2.87
2018-09-25T12:48:39.889Z,2.93
2018-09-25T12:51:13.534Z,3.40
2018-09-25T12:53:47.220Z,2.90
2018-09-25T12:56:20.945Z,2.83
2018-09-25T12:58:54.612Z,3.07
2018-09-25T13:01:28.546Z,3.77
2018-09-25T13:04:02.495Z,3.57
2018-09-25T13:06:36.119Z,5.60
2018-09-25T13:09:12.359Z,4.87
2018-09-25T13:11:46.221Z,3.57
2018-09-25T13:14:20.108Z,2.40
2018-09-25T13:16:53.749Z,3.20
2018-09-25T13:19:27.474Z,3.60
2018-09-25T13:22:01.225Z,2.90
2018-09-25T13:24:35.028Z,2.37
2018-09-25T13:27:08.872Z,3.20
2018-09-25T13:29:42.673Z,2.93
2018-09-25T13:32:16.519Z,2.83
2018-09-25T13:34:50.164Z,2.70
2018-09-25T13:37:23.927Z,4.23
2018-09-25T13:39:57.545Z,2.43
2018-09-25T13:42:31.242Z,3.73
2018-09-25T13:45:04.996Z,3.40
2018-09-25T13:47:38.860Z,3.27
2018-09-25T13:50:12.584Z,4.20
2018-09-25T13:52:46.323Z,4.63
2018-09-25T13:55:20.088Z,3.77
2018-09-25T13:57:53.779Z,4.77
2018-09-25T14:00:27.555Z,3.87
2018-09-25T14:03:01.324Z,4.97
2018-09-25T14:05:35.130Z,4.43
2018-09-25T14:08:08.933Z,5.00
2018-09-25T14:10:42.612Z,4.53
2018-09-25T14:13:16.543Z,8.93
2018-09-25T14:15:50.345Z,6.73
2018-09-25T14:18:24.039Z,7.20
2018-09-25T14:20:57.804Z,9.23
2018-09-25T14:23:32.070Z,11.53
2018-09-25T14:26:05.709Z,12.40
2018-09-25T14:28:39.670Z,12.93
2018-09-25T14:31:13.626Z,14.17
2018-09-25T14:33:47.275Z,17.97
2018-09-25T14:36:21.046Z,17.67
2018-09-25T14:38:54.936Z,19.40
2018-09-25T14:41:28.709Z,21.77
2018-09-25T14:44:02.423Z,18.90
2018-09-25T14:46:36.189Z,21.37
2018-09-25T14:49:09.976Z,22.67
2018-09-25T14:51:43.876Z,22.77
2018-09-25T14:54:17.499Z,21.93
2018-09-25T14:56:51.582Z,20.80
2018-09-25T14:59:25.409Z,22.13
2018-09-25T15:01:59.370Z,23.47
2018-09-25T15:04:33.193Z,23.13
2018-09-25T15:07:07.059Z,21.80
2018-09-25T15:09:40.849Z,21.83
2018-09-25T15:12:14.643Z,20.40
2018-09-25T15:14:48.390Z,22.40
2018-09-25T15:17:22.201Z,22.67
2018-09-25T15:19:55.873Z,21.83
2018-09-25T15:22:29.697Z,24.27
2018-09-25T15:25:03.480Z,23.23
2018-09-25T15:27:37.265Z,21.23
2018-09-25T15:30:11.020Z,21.23
2018-09-25T15:32:44.768Z,24.07
2018-09-25T15:35:18.659Z,22.37
2018-09-25T15:37:57.535Z,23.43
2018-09-25T15:40:38.555Z,21.73
2018-09-25T15:43:12.404Z,22.83
2018-09-25T15:45:46.036Z,21.13
2018-09-25T15:48:19.901Z,18.80
2018-09-25T15:50:53.779Z,20.70
2018-09-25T15:53:27.662Z,19.67
2018-09-25T15:56:01.465Z,19.00
2018-09-25T15:58:35.177Z,18.77
2018-09-25T16:01:08.961Z,18.60
2018-09-25T16:03:42.736Z,18.93
2018-09-25T16:06:16.774Z,16.33
2018-09-25T16:08:51.743Z,18.43
2018-09-25T16:11:25.430Z,20.43
2018-09-25T16:13:59.379Z,16.77
2018-09-25T16:16:33.125Z,16.53
2018-09-25T16:19:06.953Z,15.93
2018-09-25T16:21:40.768Z,18.77
2018-09-25T16:24:14.612Z,18.47
2018-09-25T16:26:48.431Z,15.97
2018-09-25T16:29:22.268Z,14.97
2018-09-25T16:31:56.885Z,15.97
2018-09-25T16:34:31.860Z,16.87
2018-09-25T16:37:05.798Z,16.20
2018-09-25T16:39:39.505Z,17.17
2018-09-25T16:42:13.293Z,18.63
2018-09-25T16:44:47.369Z,18.67
2018-09-25T16:47:27.555Z,18.10
2018-09-25T16:50:01.955Z,17.70
2018-09-25T16:52:36.508Z,19.07
2018-09-25T16:55:10.534Z,21.87
2018-09-25T16:57:44.593Z,18.20
2018-09-25T17:00:18.313Z,18.50
2018-09-25T17:02:51.849Z,17.60
2018-09-25T17:05:25.640Z,18.33
2018-09-25T17:07:59.617Z,18.80
2018-09-25T17:10:33.664Z,19.13
2018-09-25T17:13:12.053Z,17.07
2018-09-25T17:15:50.121Z,16.27
2018-09-25T17:18:24.924Z,16.50
2018-09-25T17:20:59.187Z,14.93
2018-09-25T17:23:32.841Z,15.07
2018-09-25T17:26:06.625Z,16.80
2018-09-25T17:28:40.363Z,15.53
2018-09-25T17:31:14.074Z,17.70
2018-09-25T17:33:47.965Z,17.90
2018-09-25T17:36:28.696Z,16.13
2018-09-25T17:39:02.592Z,15.73
2018-09-25T17:41:38.117Z,15.27
2018-09-25T17:44:12.019Z,17.37
2018-09-25T17:46:45.914Z,16.40
2018-09-25T17:49:19.783Z,18.50
2018-09-25T17:51:53.455Z,17.83
2018-09-25T17:54:27.257Z,20.03
2018-09-25T17:57:01.107Z,17.57
2018-09-25T17:59:34.869Z,15.63
2018-09-25T18:02:08.567Z,18.00
2018-09-25T18:04:42.609Z,19.87
2018-09-25T18:07:16.794Z,16.70
2018-09-25T18:09:53.271Z,15.73
2018-09-25T18:12:27.085Z,16.60
2018-09-25T18:15:01.322Z,16.67
2018-09-25T18:17:35.091Z,17.90
2018-09-25T18:20:08.798Z,21.27
2018-09-25T18:22:42.756Z,17.60
2018-09-25T18:25:16.529Z,20.97
2018-09-25T18:27:50.450Z,17.77
2018-09-25T18:30:24.964Z,18.93
2018-09-25T18:32:58.841Z,23.53
2018-09-25T18:35:34.313Z,46.83
2018-09-25T18:38:08.260Z,34.37
2018-09-25T18:40:42.151Z,68.63
2018-09-25T18:43:16.021Z,53.87
2018-09-25T18:45:49.724Z,53.00
2018-09-25T18:48:23.377Z,47.73
2018-09-25T18:50:57.030Z,48.43
2018-09-25T18:53:31.413Z,43.27
2018-09-25T18:56:05.536Z,37.47
2018-09-25T18:58:39.477Z,43.57
2018-09-25T19:01:13.660Z,40.43
2018-09-25T19:03:47.572Z,38.27
2018-09-25T19:06:21.663Z,30.80
2018-09-25T19:08:55.743Z,36.00
2018-09-25T19:11:50.135Z,37.67
2018-09-25T19:14:24.737Z,32.93
2018-09-25T19:17:00.998Z,31.97
2018-09-25T19:19:36.772Z,34.40
2018-09-25T19:22:11.414Z,28.43
2018-09-25T19:24:48.724Z,28.50
2018-09-25T19:27:34.225Z,27.10
2018-09-25T19:30:07.929Z,31.17
2018-09-25T19:32:42.000Z,26.23
2018-09-25T19:35:15.612Z,26.90
2018-09-25T19:37:49.491Z,26.63
2018-09-25T19:40:23.239Z,28.50
2018-09-25T19:42:57.074Z,23.87
2018-09-25T19:45:39.097Z,25.67
2018-09-25T19:48:17.395Z,29.30
2018-09-25T19:50:51.275Z,27.10
2018-09-25T19:53:25.165Z,23.30
2018-09-25T19:55:59.616Z,28.20
2018-09-25T19:58:34.250Z,23.10
2018-09-25T20:01:09.071Z,25.67
2018-09-25T20:03:42.694Z,24.90
2018-09-25T20:06:22.168Z,23.47
2018-09-25T20:08:56.008Z,26.70
2018-09-25T20:11:29.814Z,21.77
2018-09-25T20:14:05.828Z,24.23
2018-09-25T20:16:43.014Z,25.47
2018-09-25T20:19:17.297Z,24.30
2018-09-25T20:21:52.670Z,25.47
2018-09-25T20:24:28.221Z,23.93
2018-09-25T20:27:05.653Z,23.77
2018-09-25T20:29:39.468Z,21.23
2018-09-25T20:32:13.843Z,22.27
2018-09-25T20:34:54.027Z,23.13
2018-09-25T20:37:31.222Z,24.67
